New Boston, MI (48164)

7:37 PM EDT on May 24, 2015 (GMT -0400)
KMIBROWN4 | | Change Station
CLOSE
Current Station
Personal Weather Station
Location: Brownstown, MI
Elevation: 623 ft
Nearby Weather Stations

Elev 623 ft 42.16 °N, 83.30 °W | Updated 25 seconds ago

Overcast
Overcast
74.3 °F
Feels Like 77 °F
N
0.0
Wind Variable Wind from ENE
Gusts 8.0 mph

Today
High -- | Low -- °F
--% Chance of Precip.
Yesterday
High -- | Low -- °F
Precip. -- in
6:04 AM 8:56 PM
Waxing Crescent, 43% visible
Pressure 30.12 in
Visibility 10.0 miles
Clouds Scattered Clouds 6500 ft
Mostly Cloudy 10000 ft
Heat Index 77 °F
Dew Point 55 °F
Humidity 51%
Rainfall 0.00 in
Snow Depth Not available.
UV 1 out of 12
Pollen 8.30 out of 12
Air Quality Not available.
Flu Activity Sporadic
METAR KDTW 242253Z 07006KT 10SM SCT065 BKN100 25/10 A3013 RMK AO2 SLP200 T02500100

More Conditions Fewer Conditions

Pressure 30.12 in
Visibility 10.0 miles
Clouds Scattered Clouds 6500 ft
Mostly Cloudy 10000 ft
Heat Index 77 °F
Dew Point 55 °F
Humidity 51%
Rainfall 0.00 in
Snow Depth Not available.
UV 1 out of 12
Pollen 8.30 out of 12
Air Quality Not available.
Flu Activity Sporadic
METAR KDTW 242253Z 07006KT 10SM SCT065 BKN100 25/10 A3013 RMK AO2 SLP200 T02500100

More Conditions Fewer Conditions

10-Day Weather Forecast

Almanac

Astronomy

May. 24, 2015 Rise Set
Actual Time
Civil Twilight
Nautical Twilight
Astronomical Twilight
Moon
Length of Visible Light
Length of Day
Tomorrow will be .
, % of the Moon is Illuminated

Today's Extremes

State Highs State Lows

Community

WunderPhotos

Upload Photos

1,823,895 photos uploaded!

WunderBlogs® & News

Nearby

Air Quality

  Air Quality AQ Index Pollutant
Not available.

Snow Depth

Station Depth Elevation

Earthquake Activity

City Distance Mag. Time & Date
Minimum magnitude displayed is 2.5.

Coastal Water Temperatures

Place Temperature

Stations

Nearby Weather Stations

Station Location Temp. Windchill Dew Point Humidity Wind Precip. Elev Updated Type